sensor_id;sensor_type;location;lat;lon;timestamp;temperature;humidity
5009;DHT22;2523;51.058;6.922;2022-12-18T00:00:44;-3.20;99.90
5009;DHT22;2523;51.058;6.922;2022-12-18T00:03:12;-3.20;99.90
5009;DHT22;2523;51.058;6.922;2022-12-18T00:05:48;-3.20;99.90
5009;DHT22;2523;51.058;6.922;2022-12-18T00:08:14;-3.30;99.90
5009;DHT22;2523;51.058;6.922;2022-12-18T00:10:40;-3.30;99.90
5009;DHT22;2523;51.058;6.922;2022-12-18T00:13:06;-3.30;99.90
5009;DHT22;2523;51.058;6.922;2022-12-18T00:15:34;-3.20;99.90
5009;DHT22;2523;51.058;6.922;2022-12-18T00:17:59;-3.20;99.90
5009;DHT22;2523;51.058;6.922;2022-12-18T00:20:25;-3.30;99.90
5009;DHT22;2523;51.058;6.922;2022-12-18T00:22:52;-3.40;99.90
5009;DHT22;2523;51.058;6.922;2022-12-18T00:25:18;-3.40;99.90
5009;DHT22;2523;51.058;6.922;2022-12-18T00:27:43;-3.30;99.90
5009;DHT22;2523;51.058;6.922;2022-12-18T00:30:09;-3.40;99.90
5009;DHT22;2523;51.058;6.922;2022-12-18T00:32:35;-3.30;99.90
5009;DHT22;2523;51.058;6.922;2022-12-18T00:35:01;-3.30;99.90
5009;DHT22;2523;51.058;6.922;2022-12-18T00:37:27;-3.30;99.90
5009;DHT22;2523;51.058;6.922;2022-12-18T00:39:52;-3.40;99.90
5009;DHT22;2523;51.058;6.922;2022-12-18T00:42:18;-3.50;99.90
5009;DHT22;2523;51.058;6.922;2022-12-18T00:45:02;-3.60;99.90
5009;DHT22;2523;51.058;6.922;2022-12-18T00:47:28;-3.60;99.90
5009;DHT22;2523;51.058;6.922;2022-12-18T00:49:53;-3.60;99.90
5009;DHT22;2523;51.058;6.922;2022-12-18T00:52:19;-3.50;99.90
5009;DHT22;2523;51.058;6.922;2022-12-18T00:54:44;-3.50;99.90
5009;DHT22;2523;51.058;6.922;2022-12-18T00:57:10;-3.50;99.90
5009;DHT22;2523;51.058;6.922;2022-12-18T00:59:35;-3.70;99.90
5009;DHT22;2523;51.058;6.922;2022-12-18T01:02:01;-3.70;99.90
5009;DHT22;2523;51.058;6.922;2022-12-18T01:04:26;-3.80;99.90
5009;DHT22;2523;51.058;6.922;2022-12-18T01:06:52;-3.80;99.90
5009;DHT22;2523;51.058;6.922;2022-12-18T01:09:17;-3.80;99.90
5009;DHT22;2523;51.058;6.922;2022-12-18T01:11:43;-3.80;99.90
5009;DHT22;2523;51.058;6.922;2022-12-18T01:14:08;-3.90;99.90
5009;DHT22;2523;51.058;6.922;2022-12-18T01:16:34;-3.80;99.90
5009;DHT22;2523;51.058;6.922;2022-12-18T01:18:59;-3.90;99.90
5009;DHT22;2523;51.058;6.922;2022-12-18T01:21:25;-3.80;99.90
5009;DHT22;2523;51.058;6.922;2022-12-18T01:23:55;-3.80;99.90
5009;DHT22;2523;51.058;6.922;2022-12-18T01:26:21;-3.80;99.90
5009;DHT22;2523;51.058;6.922;2022-12-18T01:28:46;-3.80;99.90
5009;DHT22;2523;51.058;6.922;2022-12-18T01:31:15;-3.80;99.90
5009;DHT22;2523;51.058;6.922;2022-12-18T01:33:41;-3.80;99.90
5009;DHT22;2523;51.058;6.922;2022-12-18T01:36:07;-3.70;99.90
5009;DHT22;2523;51.058;6.922;2022-12-18T01:38:33;-3.70;99.90
5009;DHT22;2523;51.058;6.922;2022-12-18T01:40:59;-3.80;99.90
5009;DHT22;2523;51.058;6.922;2022-12-18T01:43:55;-3.80;99.90
5009;DHT22;2523;51.058;6.922;2022-12-18T01:46:23;-3.80;99.90
5009;DHT22;2523;51.058;6.922;2022-12-18T01:48:52;-3.80;99.90
5009;DHT22;2523;51.058;6.922;2022-12-18T01:51:19;-3.80;99.90
5009;DHT22;2523;51.058;6.922;2022-12-18T01:53:45;-3.70;99.90
5009;DHT22;2523;51.058;6.922;2022-12-18T01:56:14;-3.70;99.90
5009;DHT22;2523;51.058;6.922;2022-12-18T01:58:52;-3.80;99.90
5009;DHT22;2523;51.058;6.922;2022-12-18T02:01:23;-3.80;99.90
5009;DHT22;2523;51.058;6.922;2022-12-18T02:03:50;-3.80;99.90
5009;DHT22;2523;51.058;6.922;2022-12-18T02:06:22;-3.90;99.90
5009;DHT22;2523;51.058;6.922;2022-12-18T02:17:00;-3.80;99.90
5009;DHT22;2523;51.058;6.922;2022-12-18T02:22:26;-3.70;99.90
5009;DHT22;2523;51.058;6.922;2022-12-18T02:27:24;-3.70;99.90
5009;DHT22;2523;51.058;6.922;2022-12-18T02:29:54;-3.70;99.90
5009;DHT22;2523;51.058;6.922;2022-12-18T02:32:25;-3.70;99.90
5009;DHT22;2523;51.058;6.922;2022-12-18T02:34:53;-3.70;99.90
5009;DHT22;2523;51.058;6.922;2022-12-18T02:37:21;-3.60;99.90
5009;DHT22;2523;51.058;6.922;2022-12-18T02:39:49;-3.60;99.90
5009;DHT22;2523;51.058;6.922;2022-12-18T02:42:16;-3.60;99.90
5009;DHT22;2523;51.058;6.922;2022-12-18T02:44:50;-3.60;99.90
5009;DHT22;2523;51.058;6.922;2022-12-18T02:47:22;-3.50;99.90
5009;DHT22;2523;51.058;6.922;2022-12-18T02:50:07;-3.50;99.90
5009;DHT22;2523;51.058;6.922;2022-12-18T02:53:16;-3.60;99.90
5009;DHT22;2523;51.058;6.922;2022-12-18T02:55:58;-3.70;99.90
5009;DHT22;2523;51.058;6.922;2022-12-18T02:58:55;-3.70;99.90
5009;DHT22;2523;51.058;6.922;2022-12-18T03:01:57;-3.70;99.90
5009;DHT22;2523;51.058;6.922;2022-12-18T03:04:32;-3.60;99.90
5009;DHT22;2523;51.058;6.922;2022-12-18T03:07:02;-3.60;99.90
5009;DHT22;2523;51.058;6.922;2022-12-18T03:09:34;-3.70;99.90
5009;DHT22;2523;51.058;6.922;2022-12-18T03:12:17;-3.70;99.90
5009;DHT22;2523;51.058;6.922;2022-12-18T03:15:00;-3.80;99.90
5009;DHT22;2523;51.058;6.922;2022-12-18T03:17:28;-3.70;99.90
5009;DHT22;2523;51.058;6.922;2022-12-18T03:19:58;-3.80;99.90
5009;DHT22;2523;51.058;6.922;2022-12-18T03:22:27;-3.80;99.90
5009;DHT22;2523;51.058;6.922;2022-12-18T03:24:56;-3.90;99.90
5009;DHT22;2523;51.058;6.922;2022-12-18T03:27:24;-4.00;99.90
5009;DHT22;2523;51.058;6.922;2022-12-18T03:30:03;-4.00;99.90
5009;DHT22;2523;51.058;6.922;2022-12-18T03:32:50;-4.10;99.90
5009;DHT22;2523;51.058;6.922;2022-12-18T03:35:22;-4.10;99.90
5009;DHT22;2523;51.058;6.922;2022-12-18T03:37:48;-4.10;99.90
5009;DHT22;2523;51.058;6.922;2022-12-18T03:40:14;-4.10;99.90
5009;DHT22;2523;51.058;6.922;2022-12-18T03:42:52;-4.10;99.90
5009;DHT22;2523;51.058;6.922;2022-12-18T03:45:23;-4.10;99.90
5009;DHT22;2523;51.058;6.922;2022-12-18T03:50:41;-4.10;99.90
5009;DHT22;2523;51.058;6.922;2022-12-18T03:55:56;-4.20;99.90
5009;DHT22;2523;51.058;6.922;2022-12-18T03:58:25;-4.10;99.90
5009;DHT22;2523;51.058;6.922;2022-12-18T04:00:53;-4.10;99.90
5009;DHT22;2523;51.058;6.922;2022-12-18T04:03:21;-4.10;99.90
5009;DHT22;2523;51.058;6.922;2022-12-18T04:05:50;-4.10;99.90
5009;DHT22;2523;51.058;6.922;2022-12-18T04:08:16;-4.10;99.90
5009;DHT22;2523;51.058;6.922;2022-12-18T04:10:42;-4.10;99.90
5009;DHT22;2523;51.058;6.922;2022-12-18T04:13:09;-4.10;99.90
5009;DHT22;2523;51.058;6.922;2022-12-18T04:15:36;-4.10;99.90
5009;DHT22;2523;51.058;6.922;2022-12-18T04:18:02;-4.20;99.90
5009;DHT22;2523;51.058;6.922;2022-12-18T04:20:28;-4.20;99.90
5009;DHT22;2523;51.058;6.922;2022-12-18T04:22:54;-4.20;99.90
5009;DHT22;2523;51.058;6.922;2022-12-18T04:25:19;-4.20;99.90
5009;DHT22;2523;51.058;6.922;2022-12-18T04:27:45;-4.30;99.90
5009;DHT22;2523;51.058;6.922;2022-12-18T04:30:11;-4.40;99.90
5009;DHT22;2523;51.058;6.922;2022-12-18T04:32:36;-4.40;99.90
5009;DHT22;2523;51.058;6.922;2022-12-18T04:35:03;-4.40;99.90
5009;DHT22;2523;51.058;6.922;2022-12-18T04:37:30;-4.40;99.90
5009;DHT22;2523;51.058;6.922;2022-12-18T04:39:56;-4.50;99.90
5009;DHT22;2523;51.058;6.922;2022-12-18T04:42:21;-4.60;99.90
5009;DHT22;2523;51.058;6.922;2022-12-18T04:44:46;-4.60;99.90
5009;DHT22;2523;51.058;6.922;2022-12-18T04:47:12;-4.60;99.90
5009;DHT22;2523;51.058;6.922;2022-12-18T04:49:37;-4.60;99.90
5009;DHT22;2523;51.058;6.922;2022-12-18T04:52:03;-4.60;99.90
5009;DHT22;2523;51.058;6.922;2022-12-18T04:54:29;-4.60;99.90
5009;DHT22;2523;51.058;6.922;2022-12-18T04:56:54;-4.60;99.90
5009;DHT22;2523;51.058;6.922;2022-12-18T04:59:20;-4.60;99.90
5009;DHT22;2523;51.058;6.922;2022-12-18T05:01:45;-4.60;99.90
5009;DHT22;2523;51.058;6.922;2022-12-18T05:04:11;-4.60;99.90
5009;DHT22;2523;51.058;6.922;2022-12-18T05:06:36;-4.60;99.90
5009;DHT22;2523;51.058;6.922;2022-12-18T05:09:02;-4.60;99.90
5009;DHT22;2523;51.058;6.922;2022-12-18T05:11:28;-4.60;99.90
5009;DHT22;2523;51.058;6.922;2022-12-18T05:13:53;-4.60;99.90
5009;DHT22;2523;51.058;6.922;2022-12-18T05:16:19;-4.60;99.90
5009;DHT22;2523;51.058;6.922;2022-12-18T05:18:44;-4.60;99.90
5009;DHT22;2523;51.058;6.922;2022-12-18T05:21:10;-4.50;99.90
5009;DHT22;2523;51.058;6.922;2022-12-18T05:23:36;-4.40;99.90
5009;DHT22;2523;51.058;6.922;2022-12-18T05:26:04;-4.50;99.90
5009;DHT22;2523;51.058;6.922;2022-12-18T05:28:32;-4.40;99.90
5009;DHT22;2523;51.058;6.922;2022-12-18T05:31:00;-4.40;99.90
5009;DHT22;2523;51.058;6.922;2022-12-18T05:33:28;-4.50;99.90
5009;DHT22;2523;51.058;6.922;2022-12-18T05:35:57;-4.50;99.90
5009;DHT22;2523;51.058;6.922;2022-12-18T05:38:24;-4.50;99.90
5009;DHT22;2523;51.058;6.922;2022-12-18T05:40:50;-4.40;99.90
5009;DHT22;2523;51.058;6.922;2022-12-18T05:43:17;-4.50;99.90
5009;DHT22;2523;51.058;6.922;2022-12-18T05:45:43;-4.50;99.90
5009;DHT22;2523;51.058;6.922;2022-12-18T05:48:09;-4.50;99.90
5009;DHT22;2523;51.058;6.922;2022-12-18T05:50:36;-4.60;99.90
5009;DHT22;2523;51.058;6.922;2022-12-18T05:53:03;-4.60;99.90
5009;DHT22;2523;51.058;6.922;2022-12-18T05:55:28;-4.60;99.90
5009;DHT22;2523;51.058;6.922;2022-12-18T05:57:54;-4.70;99.90
5009;DHT22;2523;51.058;6.922;2022-12-18T06:00:19;-4.70;99.90
5009;DHT22;2523;51.058;6.922;2022-12-18T06:02:48;-4.70;99.90
5009;DHT22;2523;51.058;6.922;2022-12-18T06:05:14;-4.60;99.90
5009;DHT22;2523;51.058;6.922;2022-12-18T06:07:39;-4.50;99.90
5009;DHT22;2523;51.058;6.922;2022-12-18T06:10:05;-4.50;99.90
5009;DHT22;2523;51.058;6.922;2022-12-18T06:12:31;-4.60;99.90
5009;DHT22;2523;51.058;6.922;2022-12-18T06:14:59;-4.60;99.90
5009;DHT22;2523;51.058;6.922;2022-12-18T06:17:28;-4.70;99.90
5009;DHT22;2523;51.058;6.922;2022-12-18T06:19:54;-4.60;99.90
5009;DHT22;2523;51.058;6.922;2022-12-18T06:22:20;-4.70;99.90
5009;DHT22;2523;51.058;6.922;2022-12-18T06:24:46;-4.60;99.90
5009;DHT22;2523;51.058;6.922;2022-12-18T06:27:11;-4.60;99.90
5009;DHT22;2523;51.058;6.922;2022-12-18T06:29:37;-4.60;99.90
5009;DHT22;2523;51.058;6.922;2022-12-18T06:32:02;-4.50;99.90
5009;DHT22;2523;51.058;6.922;2022-12-18T06:34:28;-4.50;99.90
5009;DHT22;2523;51.058;6.922;2022-12-18T06:36:53;-4.50;99.90
5009;DHT22;2523;51.058;6.922;2022-12-18T06:39:19;-4.50;99.90
5009;DHT22;2523;51.058;6.922;2022-12-18T06:41:44;-4.50;99.90
5009;DHT22;2523;51.058;6.922;2022-12-18T06:44:10;-4.50;99.90
5009;DHT22;2523;51.058;6.922;2022-12-18T06:46:35;-4.50;99.90
5009;DHT22;2523;51.058;6.922;2022-12-18T06:49:01;-4.60;99.90
5009;DHT22;2523;51.058;6.922;2022-12-18T06:51:26;-4.70;99.90
5009;DHT22;2523;51.058;6.922;2022-12-18T06:53:52;-4.80;99.90
5009;DHT22;2523;51.058;6.922;2022-12-18T06:56:18;-4.80;99.90
5009;DHT22;2523;51.058;6.922;2022-12-18T06:58:43;-4.80;99.90
5009;DHT22;2523;51.058;6.922;2022-12-18T07:01:11;-4.80;99.90
5009;DHT22;2523;51.058;6.922;2022-12-18T07:03:38;-4.80;99.90
5009;DHT22;2523;51.058;6.922;2022-12-18T07:06:04;-4.80;99.90
5009;DHT22;2523;51.058;6.922;2022-12-18T07:08:30;-4.80;99.90
5009;DHT22;2523;51.058;6.922;2022-12-18T07:10:56;-4.80;99.90
5009;DHT22;2523;51.058;6.922;2022-12-18T07:13:22;-4.70;99.90
5009;DHT22;2523;51.058;6.922;2022-12-18T07:15:48;-4.60;99.90
5009;DHT22;2523;51.058;6.922;2022-12-18T07:18:13;-4.50;99.90
5009;DHT22;2523;51.058;6.922;2022-12-18T07:20:39;-4.50;99.90
5009;DHT22;2523;51.058;6.922;2022-12-18T07:23:05;-4.40;99.90
5009;DHT22;2523;51.058;6.922;2022-12-18T07:25:34;-4.40;99.90
5009;DHT22;2523;51.058;6.922;2022-12-18T07:28:00;-4.40;99.90
5009;DHT22;2523;51.058;6.922;2022-12-18T07:30:25;-4.30;99.90
5009;DHT22;2523;51.058;6.922;2022-12-18T07:32:51;-4.30;99.90
5009;DHT22;2523;51.058;6.922;2022-12-18T07:35:16;-4.30;99.90
5009;DHT22;2523;51.058;6.922;2022-12-18T07:37:42;-4.30;99.90
5009;DHT22;2523;51.058;6.922;2022-12-18T07:40:08;-4.30;99.90
5009;DHT22;2523;51.058;6.922;2022-12-18T07:42:33;-4.20;99.90
5009;DHT22;2523;51.058;6.922;2022-12-18T07:45:00;-4.30;99.90
5009;DHT22;2523;51.058;6.922;2022-12-18T07:47:27;-4.30;99.90
5009;DHT22;2523;51.058;6.922;2022-12-18T07:49:52;-4.20;99.90
5009;DHT22;2523;51.058;6.922;2022-12-18T07:52:18;-4.20;99.90
5009;DHT22;2523;51.058;6.922;2022-12-18T07:54:43;-4.20;99.90
5009;DHT22;2523;51.058;6.922;2022-12-18T07:57:09;-4.20;99.90
5009;DHT22;2523;51.058;6.922;2022-12-18T07:59:35;-4.20;99.90
5009;DHT22;2523;51.058;6.922;2022-12-18T08:02:00;-4.10;99.90
5009;DHT22;2523;51.058;6.922;2022-12-18T08:04:26;-4.10;99.90
5009;DHT22;2523;51.058;6.922;2022-12-18T08:06:52;-4.10;99.90
5009;DHT22;2523;51.058;6.922;2022-12-18T08:09:17;-4.10;99.90
5009;DHT22;2523;51.058;6.922;2022-12-18T08:11:43;-4.00;99.90
5009;DHT22;2523;51.058;6.922;2022-12-18T08:14:09;-3.90;99.90
5009;DHT22;2523;51.058;6.922;2022-12-18T08:16:35;-3.80;99.90
5009;DHT22;2523;51.058;6.922;2022-12-18T08:19:00;-3.70;99.90
5009;DHT22;2523;51.058;6.922;2022-12-18T08:21:28;-3.40;99.90
5009;DHT22;2523;51.058;6.922;2022-12-18T08:23:56;-3.20;99.90
5009;DHT22;2523;51.058;6.922;2022-12-18T08:26:23;-3.00;99.90
5009;DHT22;2523;51.058;6.922;2022-12-18T08:28:50;-2.90;99.90
5009;DHT22;2523;51.058;6.922;2022-12-18T08:31:16;-2.70;99.90
5009;DHT22;2523;51.058;6.922;2022-12-18T08:33:42;-2.60;99.90
5009;DHT22;2523;51.058;6.922;2022-12-18T08:36:08;-2.40;99.90
5009;DHT22;2523;51.058;6.922;2022-12-18T08:38:34;-2.50;99.90
5009;DHT22;2523;51.058;6.922;2022-12-18T08:41:01;-2.60;99.90
5009;DHT22;2523;51.058;6.922;2022-12-18T08:43:27;-2.60;99.90
5009;DHT22;2523;51.058;6.922;2022-12-18T08:46:12;-2.50;99.90
5009;DHT22;2523;51.058;6.922;2022-12-18T08:48:37;-2.60;99.90
5009;DHT22;2523;51.058;6.922;2022-12-18T08:51:03;-2.60;99.90
5009;DHT22;2523;51.058;6.922;2022-12-18T08:57:07;-2.60;99.90
5009;DHT22;2523;51.058;6.922;2022-12-18T08:59:33;-2.60;99.90
5009;DHT22;2523;51.058;6.922;2022-12-18T09:01:58;-2.50;99.90
5009;DHT22;2523;51.058;6.922;2022-12-18T09:04:24;-2.60;99.90
5009;DHT22;2523;51.058;6.922;2022-12-18T09:06:49;-2.50;99.90
5009;DHT22;2523;51.058;6.922;2022-12-18T09:09:15;-2.40;99.90
5009;DHT22;2523;51.058;6.922;2022-12-18T09:11:41;-2.20;99.90
5009;DHT22;2523;51.058;6.922;2022-12-18T09:14:07;-2.10;99.90
5009;DHT22;2523;51.058;6.922;2022-12-18T09:16:32;-2.00;99.90
5009;DHT22;2523;51.058;6.922;2022-12-18T09:19:02;-2.00;99.90
5009;DHT22;2523;51.058;6.922;2022-12-18T09:21:30;-2.00;99.90
5009;DHT22;2523;51.058;6.922;2022-12-18T09:23:56;-2.00;99.90
5009;DHT22;2523;51.058;6.922;2022-12-18T09:26:22;-2.00;99.90
5009;DHT22;2523;51.058;6.922;2022-12-18T09:28:49;-1.80;99.90
5009;DHT22;2523;51.058;6.922;2022-12-18T09:31:14;-1.60;99.90
5009;DHT22;2523;51.058;6.922;2022-12-18T09:33:41;-1.20;99.90
5009;DHT22;2523;51.058;6.922;2022-12-18T09:36:08;-1.00;99.90
5009;DHT22;2523;51.058;6.922;2022-12-18T09:38:34;-0.80;99.90
5009;DHT22;2523;51.058;6.922;2022-12-18T09:42:01;-0.80;99.90
5009;DHT22;2523;51.058;6.922;2022-12-18T09:46:45;-0.40;99.90
5009;DHT22;2523;51.058;6.922;2022-12-18T09:49:15;-0.10;99.90
5009;DHT22;2523;51.058;6.922;2022-12-18T09:51:46;-0.20;99.90
5009;DHT22;2523;51.058;6.922;2022-12-18T09:54:18;0.20;99.90
5009;DHT22;2523;51.058;6.922;2022-12-18T09:56:45;0.50;99.90
5009;DHT22;2523;51.058;6.922;2022-12-18T09:59:19;0.90;99.90
5009;DHT22;2523;51.058;6.922;2022-12-18T10:01:46;0.90;99.90
5009;DHT22;2523;51.058;6.922;2022-12-18T10:04:11;1.00;99.90
5009;DHT22;2523;51.058;6.922;2022-12-18T10:06:39;0.70;99.90
5009;DHT22;2523;51.058;6.922;2022-12-18T10:12:21;0.20;99.90
5009;DHT22;2523;51.058;6.922;2022-12-18T10:14:54;0.10;99.90
5009;DHT22;2523;51.058;6.922;2022-12-18T10:20:35;0.30;99.90
5009;DHT22;2523;51.058;6.922;2022-12-18T10:23:31;0.00;99.90
5009;DHT22;2523;51.058;6.922;2022-12-18T10:26:09;0.10;99.90
5009;DHT22;2523;51.058;6.922;2022-12-18T10:28:37;0.30;99.90
5009;DHT22;2523;51.058;6.922;2022-12-18T10:31:15;0.30;99.90
5009;DHT22;2523;51.058;6.922;2022-12-18T10:33:42;0.20;99.90
5009;DHT22;2523;51.058;6.922;2022-12-18T10:36:08;0.50;99.90
5009;DHT22;2523;51.058;6.922;2022-12-18T10:38:34;0.50;99.90
5009;DHT22;2523;51.058;6.922;2022-12-18T10:43:42;0.50;99.90
5009;DHT22;2523;51.058;6.922;2022-12-18T10:48:36;0.70;99.90
5009;DHT22;2523;51.058;6.922;2022-12-18T10:51:06;0.60;99.90
5009;DHT22;2523;51.058;6.922;2022-12-18T10:53:33;0.80;99.90
5009;DHT22;2523;51.058;6.922;2022-12-18T10:56:03;1.00;99.90
5009;DHT22;2523;51.058;6.922;2022-12-18T10:58:34;1.00;99.90
5009;DHT22;2523;51.058;6.922;2022-12-18T11:01:16;0.70;99.90
5009;DHT22;2523;51.058;6.922;2022-12-18T11:03:58;0.70;99.90
5009;DHT22;2523;51.058;6.922;2022-12-18T11:06:25;0.80;99.90
5009;DHT22;2523;51.058;6.922;2022-12-18T11:09:20;0.70;99.90
5009;DHT22;2523;51.058;6.922;2022-12-18T11:11:50;0.70;99.90
5009;DHT22;2523;51.058;6.922;2022-12-18T11:14:32;0.60;99.90
5009;DHT22;2523;51.058;6.922;2022-12-18T11:16:59;0.70;99.90
5009;DHT22;2523;51.058;6.922;2022-12-18T11:19:30;0.80;99.90
5009;DHT22;2523;51.058;6.922;2022-12-18T11:22:01;0.70;99.90
5009;DHT22;2523;51.058;6.922;2022-12-18T11:24:31;0.80;99.90
5009;DHT22;2523;51.058;6.922;2022-12-18T11:27:05;0.60;99.90
5009;DHT22;2523;51.058;6.922;2022-12-18T11:29:40;0.70;99.90
5009;DHT22;2523;51.058;6.922;2022-12-18T11:32:30;0.80;99.90
5009;DHT22;2523;51.058;6.922;2022-12-18T11:37:35;0.70;99.90
5009;DHT22;2523;51.058;6.922;2022-12-18T11:40:22;0.60;99.90
5009;DHT22;2523;51.058;6.922;2022-12-18T11:43:06;0.40;99.90
5009;DHT22;2523;51.058;6.922;2022-12-18T11:45:40;0.40;99.90
5009;DHT22;2523;51.058;6.922;2022-12-18T11:48:32;0.40;99.90
5009;DHT22;2523;51.058;6.922;2022-12-18T11:51:01;0.40;99.90
5009;DHT22;2523;51.058;6.922;2022-12-18T11:53:30;0.40;99.90
5009;DHT22;2523;51.058;6.922;2022-12-18T12:01:57;0.20;99.90
5009;DHT22;2523;51.058;6.922;2022-12-18T12:04:48;0.10;99.90
5009;DHT22;2523;51.058;6.922;2022-12-18T12:13:15;-0.10;99.90
5009;DHT22;2523;51.058;6.922;2022-12-18T12:16:01;-0.10;99.90
5009;DHT22;2523;51.058;6.922;2022-12-18T12:21:43;-0.10;99.90
5009;DHT22;2523;51.058;6.922;2022-12-18T12:24:38;-0.10;99.90
5009;DHT22;2523;51.058;6.922;2022-12-18T12:30:03;-0.20;99.90
5009;DHT22;2523;51.058;6.922;2022-12-18T12:35:37;-0.10;99.90
5009;DHT22;2523;51.058;6.922;2022-12-18T12:38:10;-0.10;99.90
5009;DHT22;2523;51.058;6.922;2022-12-18T12:41:02;-0.10;99.90
5009;DHT22;2523;51.058;6.922;2022-12-18T12:43:43;-0.10;99.90
5009;DHT22;2523;51.058;6.922;2022-12-18T12:46:11;-0.10;99.90
5009;DHT22;2523;51.058;6.922;2022-12-18T12:48:44;-0.10;99.90
5009;DHT22;2523;51.058;6.922;2022-12-18T12:51:21;-0.20;99.90
5009;DHT22;2523;51.058;6.922;2022-12-18T12:53:48;-0.10;99.90
5009;DHT22;2523;51.058;6.922;2022-12-18T12:56:16;-0.10;99.90
5009;DHT22;2523;51.058;6.922;2022-12-18T12:59:02;-0.20;99.90
5009;DHT22;2523;51.058;6.922;2022-12-18T13:04:42;-0.10;99.90
5009;DHT22;2523;51.058;6.922;2022-12-18T13:07:26;-0.20;99.90
5009;DHT22;2523;51.058;6.922;2022-12-18T13:12:50;-0.20;99.90
5009;DHT22;2523;51.058;6.922;2022-12-18T13:15:44;-0.20;99.90
5009;DHT22;2523;51.058;6.922;2022-12-18T13:20:45;-0.20;99.90
5009;DHT22;2523;51.058;6.922;2022-12-18T13:25:49;-0.30;99.90
5009;DHT22;2523;51.058;6.922;2022-12-18T13:28:18;-0.40;99.90
5009;DHT22;2523;51.058;6.922;2022-12-18T13:31:03;-0.40;99.90
5009;DHT22;2523;51.058;6.922;2022-12-18T13:41:38;-0.40;99.90
5009;DHT22;2523;51.058;6.922;2022-12-18T13:44:12;-0.40;99.90
5009;DHT22;2523;51.058;6.922;2022-12-18T13:46:46;-0.40;99.90
5009;DHT22;2523;51.058;6.922;2022-12-18T13:51:43;-0.50;99.90
5009;DHT22;2523;51.058;6.922;2022-12-18T13:56:56;-0.50;99.90
5009;DHT22;2523;51.058;6.922;2022-12-18T13:59:26;-0.50;99.90
5009;DHT22;2523;51.058;6.922;2022-12-18T14:01:55;-0.50;99.90
5009;DHT22;2523;51.058;6.922;2022-12-18T14:04:29;-0.50;99.90
5009;DHT22;2523;51.058;6.922;2022-12-18T14:07:12;-0.60;99.90
5009;DHT22;2523;51.058;6.922;2022-12-18T14:09:43;-0.50;99.90
5009;DHT22;2523;51.058;6.922;2022-12-18T14:12:40;-0.50;99.90
5009;DHT22;2523;51.058;6.922;2022-12-18T14:17:58;-0.50;99.90
5009;DHT22;2523;51.058;6.922;2022-12-18T14:20:25;-0.60;99.90
5009;DHT22;2523;51.058;6.922;2022-12-18T14:22:52;-0.60;99.90
5009;DHT22;2523;51.058;6.922;2022-12-18T14:25:20;-0.60;99.90
5009;DHT22;2523;51.058;6.922;2022-12-18T14:27:53;-0.60;99.90
5009;DHT22;2523;51.058;6.922;2022-12-18T14:33:24;-0.60;99.90
5009;DHT22;2523;51.058;6.922;2022-12-18T14:36:05;-0.70;99.90
5009;DHT22;2523;51.058;6.922;2022-12-18T14:43:29;-0.70;99.90
5009;DHT22;2523;51.058;6.922;2022-12-18T14:45:57;-0.70;99.90
5009;DHT22;2523;51.058;6.922;2022-12-18T14:48:40;-0.70;99.90
5009;DHT22;2523;51.058;6.922;2022-12-18T14:51:19;-0.70;99.90
5009;DHT22;2523;51.058;6.922;2022-12-18T14:59:16;-0.70;99.90
5009;DHT22;2523;51.058;6.922;2022-12-18T15:02:04;-0.70;99.90
5009;DHT22;2523;51.058;6.922;2022-12-18T15:04:37;-0.80;99.90
5009;DHT22;2523;51.058;6.922;2022-12-18T15:09:37;-0.70;99.90
5009;DHT22;2523;51.058;6.922;2022-12-18T15:12:04;-0.70;99.90
5009;DHT22;2523;51.058;6.922;2022-12-18T15:16:55;-0.70;99.90
5009;DHT22;2523;51.058;6.922;2022-12-18T15:19:31;-0.70;99.90
5009;DHT22;2523;51.058;6.922;2022-12-18T15:21:57;-0.80;99.90
5009;DHT22;2523;51.058;6.922;2022-12-18T15:24:27;-0.80;99.90
5009;DHT22;2523;51.058;6.922;2022-12-18T15:26:54;-0.80;99.90
5009;DHT22;2523;51.058;6.922;2022-12-18T15:29:21;-0.80;99.90
5009;DHT22;2523;51.058;6.922;2022-12-18T15:32:18;-0.80;99.90
5009;DHT22;2523;51.058;6.922;2022-12-18T15:34:44;-0.80;99.90
5009;DHT22;2523;51.058;6.922;2022-12-18T15:37:10;-0.80;99.90
5009;DHT22;2523;51.058;6.922;2022-12-18T15:39:35;-0.80;99.90
5009;DHT22;2523;51.058;6.922;2022-12-18T15:42:01;-0.80;99.90
5009;DHT22;2523;51.058;6.922;2022-12-18T15:44:45;-0.80;99.90
5009;DHT22;2523;51.058;6.922;2022-12-18T15:47:12;-0.90;99.90
5009;DHT22;2523;51.058;6.922;2022-12-18T15:49:38;-0.90;99.90
5009;DHT22;2523;51.058;6.922;2022-12-18T15:52:04;-0.90;99.90
5009;DHT22;2523;51.058;6.922;2022-12-18T15:54:30;-0.90;99.90
5009;DHT22;2523;51.058;6.922;2022-12-18T15:57:15;-1.00;99.90
5009;DHT22;2523;51.058;6.922;2022-12-18T15:59:54;-0.90;99.90
5009;DHT22;2523;51.058;6.922;2022-12-18T16:02:21;-1.00;99.90
5009;DHT22;2523;51.058;6.922;2022-12-18T16:04:48;-1.00;99.90
5009;DHT22;2523;51.058;6.922;2022-12-18T16:07:14;-1.00;99.90
5009;DHT22;2523;51.058;6.922;2022-12-18T16:09:39;-1.00;99.90
5009;DHT22;2523;51.058;6.922;2022-12-18T16:12:06;-1.00;99.90
5009;DHT22;2523;51.058;6.922;2022-12-18T16:14:32;-1.00;99.90
5009;DHT22;2523;51.058;6.922;2022-12-18T16:17:02;-1.10;99.90
5009;DHT22;2523;51.058;6.922;2022-12-18T16:19:29;-1.10;99.90
5009;DHT22;2523;51.058;6.922;2022-12-18T16:21:56;-1.00;99.90
5009;DHT22;2523;51.058;6.922;2022-12-18T16:24:24;-1.10;99.90
5009;DHT22;2523;51.058;6.922;2022-12-18T16:26:51;-1.10;99.90
5009;DHT22;2523;51.058;6.922;2022-12-18T16:29:18;-1.10;99.90
5009;DHT22;2523;51.058;6.922;2022-12-18T16:31:43;-1.10;99.90
5009;DHT22;2523;51.058;6.922;2022-12-18T16:36:35;-1.20;99.90
5009;DHT22;2523;51.058;6.922;2022-12-18T16:39:01;-1.20;99.90
5009;DHT22;2523;51.058;6.922;2022-12-18T16:41:29;-1.20;99.90
5009;DHT22;2523;51.058;6.922;2022-12-18T16:43:58;-1.20;99.90
5009;DHT22;2523;51.058;6.922;2022-12-18T16:46:24;-1.20;99.90
5009;DHT22;2523;51.058;6.922;2022-12-18T16:48:49;-1.20;99.90
5009;DHT22;2523;51.058;6.922;2022-12-18T16:51:15;-1.20;99.90
5009;DHT22;2523;51.058;6.922;2022-12-18T16:53:41;-1.20;99.90
5009;DHT22;2523;51.058;6.922;2022-12-18T16:56:06;-1.20;99.90
5009;DHT22;2523;51.058;6.922;2022-12-18T16:58:32;-1.20;99.90
5009;DHT22;2523;51.058;6.922;2022-12-18T17:00:58;-1.20;99.90
5009;DHT22;2523;51.058;6.922;2022-12-18T17:03:24;-1.30;99.90
5009;DHT22;2523;51.058;6.922;2022-12-18T17:05:49;-1.30;99.90
5009;DHT22;2523;51.058;6.922;2022-12-18T17:08:15;-1.30;99.90
5009;DHT22;2523;51.058;6.922;2022-12-18T17:10:41;-1.30;99.90
5009;DHT22;2523;51.058;6.922;2022-12-18T17:13:06;-1.30;99.90
5009;DHT22;2523;51.058;6.922;2022-12-18T17:15:35;-1.40;99.90
5009;DHT22;2523;51.058;6.922;2022-12-18T17:18:01;-1.30;99.90
5009;DHT22;2523;51.058;6.922;2022-12-18T17:20:27;-1.40;99.90
5009;DHT22;2523;51.058;6.922;2022-12-18T17:22:52;-1.40;99.90
5009;DHT22;2523;51.058;6.922;2022-12-18T17:25:18;-1.40;99.90
5009;DHT22;2523;51.058;6.922;2022-12-18T17:27:43;-1.40;99.90
5009;DHT22;2523;51.058;6.922;2022-12-18T17:30:09;-1.40;99.90
5009;DHT22;2523;51.058;6.922;2022-12-18T17:32:35;-1.40;99.90
5009;DHT22;2523;51.058;6.922;2022-12-18T17:35:01;-1.40;99.90
5009;DHT22;2523;51.058;6.922;2022-12-18T17:37:26;-1.40;99.90
5009;DHT22;2523;51.058;6.922;2022-12-18T17:39:52;-1.40;99.90
5009;DHT22;2523;51.058;6.922;2022-12-18T17:42:18;-1.40;99.90
5009;DHT22;2523;51.058;6.922;2022-12-18T17:44:44;-1.40;99.90
5009;DHT22;2523;51.058;6.922;2022-12-18T17:47:10;-1.40;99.90
5009;DHT22;2523;51.058;6.922;2022-12-18T17:49:37;-1.40;99.90
5009;DHT22;2523;51.058;6.922;2022-12-18T17:52:03;-1.40;99.90
5009;DHT22;2523;51.058;6.922;2022-12-18T17:54:28;-1.40;99.90
5009;DHT22;2523;51.058;6.922;2022-12-18T17:56:54;-1.50;99.90
5009;DHT22;2523;51.058;6.922;2022-12-18T17:59:19;-1.50;99.90
5009;DHT22;2523;51.058;6.922;2022-12-18T18:01:45;-1.50;99.90
5009;DHT22;2523;51.058;6.922;2022-12-18T18:04:14;-1.50;99.90
5009;DHT22;2523;51.058;6.922;2022-12-18T18:06:39;-1.50;99.90